Time;durP1;ratioP1;P1;durP2;ratioP2;P2;SDS_P1;SDS_P2;PMS_P1;PMS_P2;Temp;Humidity;BMP_temperature;BMP_pressure;BME280_temperature;BME280_humidity;BME280_pressure;Samples;Min_cycle;Max_cycle;Signal;HPM_P1;HPM_P2
2022/03/28 00:00:29;;;;;;;;;;;5.20;99.90;;;;;;5005004;28;19941;-53
2022/03/28 00:02:54;;;;;;;;;;;5.20;99.90;;;;;;5008816;28;19926;-55
2022/03/28 00:05:20;;;;;;;;;;;5.20;99.90;;;;;;5005425;28;19933;-53
2022/03/28 00:07:45;;;;;;;;;;;5.30;99.90;;;;;;5006742;28;21247;-55
2022/03/28 00:10:12;;;;;;;;;;;5.30;99.90;;;;;;5007028;28;20023;-52
2022/03/28 00:12:38;;;;;;;;;;;5.40;99.90;;;;;;5008939;28;20016;-53
2022/03/28 00:15:05;;;;;;;;;;;5.40;99.90;;;;;;5001612;28;19932;-52
2022/03/28 00:17:32;;;;;;;;;;;5.60;99.90;;;;;;4987480;28;19930;-51
2022/03/28 00:19:58;;;;;;;;;;;5.50;99.90;;;;;;5006913;28;20013;-51
2022/03/28 00:22:23;;;;;;;;;;;5.60;99.90;;;;;;5007568;28;20359;-51
2022/03/28 00:24:49;;;;;;;;;;;5.60;99.90;;;;;;5004187;28;20400;-53
2022/03/28 00:27:14;;;;;;;;;;;5.50;99.90;;;;;;5007475;28;19934;-52
2022/03/28 00:29:40;;;;;;;;;;;5.30;99.90;;;;;;5006959;28;19980;-53
2022/03/28 00:32:05;;;;;;;;;;;5.40;99.90;;;;;;5006037;28;20353;-53
2022/03/28 00:34:31;;;;;;;;;;;5.40;99.90;;;;;;5009351;28;20027;-55
2022/03/28 00:36:56;;;;;;;;;;;5.30;99.90;;;;;;5005160;28;19976;-55
2022/03/28 00:39:22;;;;;;;;;;;5.30;99.90;;;;;;5007801;28;20279;-54
2022/03/28 00:41:48;;;;;;;;;;;5.30;99.90;;;;;;5006050;28;20363;-54
2022/03/28 00:44:13;;;;;;;;;;;5.30;99.90;;;;;;5006480;28;19930;-54
2022/03/28 00:46:39;;;;;;;;;;;5.30;99.90;;;;;;4989102;28;19979;-55
2022/03/28 00:49:05;;;;;;;;;;;5.20;99.90;;;;;;5009241;28;19926;-55
2022/03/28 00:51:30;;;;;;;;;;;5.20;99.90;;;;;;5006069;28;19951;-55
2022/03/28 00:53:57;;;;;;;;;;;5.20;99.90;;;;;;5007658;28;19936;-53
2022/03/28 00:56:22;;;;;;;;;;;5.20;99.90;;;;;;5005744;28;20288;-54
2022/03/28 00:58:48;;;;;;;;;;;5.10;99.90;;;;;;5007668;28;19936;-53
2022/03/28 01:01:14;;;;;;;;;;;5.20;99.90;;;;;;5005871;28;19926;-55
2022/03/28 01:03:40;;;;;;;;;;;5.10;99.90;;;;;;5005436;28;19932;-52
2022/03/28 01:06:05;;;;;;;;;;;5.00;99.90;;;;;;5007677;28;19948;-56
2022/03/28 01:08:31;;;;;;;;;;;5.00;99.90;;;;;;5008859;28;20375;-55
2022/03/28 01:10:58;;;;;;;;;;;5.10;99.90;;;;;;5005745;28;19980;-55
2022/03/28 01:13:24;;;;;;;;;;;5.10;99.90;;;;;;5006988;28;19940;-56
2022/03/28 01:15:50;;;;;;;;;;;5.10;99.90;;;;;;5005406;28;19926;-54
2022/03/28 01:18:15;;;;;;;;;;;5.00;99.90;;;;;;5009240;28;20012;-55
2022/03/28 01:20:41;;;;;;;;;;;5.10;99.90;;;;;;5008713;28;19964;-55
2022/03/28 01:23:07;;;;;;;;;;;5.10;99.90;;;;;;5006416;28;20000;-55
2022/03/28 01:25:32;;;;;;;;;;;5.00;99.90;;;;;;5005569;28;19973;-54
2022/03/28 01:27:59;;;;;;;;;;;5.10;99.90;;;;;;5006792;28;20382;-54
2022/03/28 01:30:25;;;;;;;;;;;5.00;99.90;;;;;;5008754;28;20041;-55
2022/03/28 01:32:51;;;;;;;;;;;5.30;99.90;;;;;;4999792;28;20016;-55
2022/03/28 01:35:27;;;;;;;;;;;5.10;99.90;;;;;;5004694;28;20422;-53
2022/03/28 01:37:53;;;;;;;;;;;5.20;99.90;;;;;;5003234;28;20033;-56
2022/03/28 01:40:18;;;;;;;;;;;5.20;99.90;;;;;;5007407;28;20027;-56
2022/03/28 01:42:45;;;;;;;;;;;5.30;99.90;;;;;;5006806;28;19937;-54
2022/03/28 01:45:12;;;;;;;;;;;5.20;99.90;;;;;;5009341;28;20396;-55
2022/03/28 01:47:38;;;;;;;;;;;5.20;99.90;;;;;;5004751;28;20383;-54
2022/03/28 01:50:03;;;;;;;;;;;5.20;99.90;;;;;;5045074;22;19933;-48
2022/03/28 01:52:29;;;;;;;;;;;5.30;99.90;;;;;;5006178;28;20305;-52
2022/03/28 01:54:54;;;;;;;;;;;5.30;99.90;;;;;;5007785;28;20352;-50
2022/03/28 01:57:20;;;;;;;;;;;5.30;99.90;;;;;;5012651;28;19925;-48
2022/03/28 01:59:45;;;;;;;;;;;5.30;99.90;;;;;;5011560;28;19940;-48
2022/03/28 02:02:11;;;;;;;;;;;5.40;99.90;;;;;;5009479;28;20438;-50
2022/03/28 02:04:36;;;;;;;;;;;5.30;99.90;;;;;;5013079;28;19940;-50
2022/03/28 02:07:02;;;;;;;;;;;5.40;99.90;;;;;;5010903;28;20023;-47
2022/03/28 02:09:27;;;;;;;;;;;5.40;99.90;;;;;;5006966;28;19936;-47
2022/03/28 02:11:53;;;;;;;;;;;5.30;99.90;;;;;;5011640;28;19932;-48
2022/03/28 02:14:19;;;;;;;;;;;5.30;99.90;;;;;;5007962;28;19926;-47
2022/03/28 02:16:44;;;;;;;;;;;5.30;99.90;;;;;;5007436;28;19933;-48
2022/03/28 02:19:10;;;;;;;;;;;5.30;99.90;;;;;;5011852;28;19991;-48
2022/03/28 02:21:35;;;;;;;;;;;5.20;99.90;;;;;;4993272;28;20003;-48
2022/03/28 02:24:01;;;;;;;;;;;5.30;99.90;;;;;;5011930;28;19926;-47
2022/03/28 02:26:26;;;;;;;;;;;5.20;99.90;;;;;;5010753;28;19972;-48
2022/03/28 02:28:52;;;;;;;;;;;5.20;99.90;;;;;;5011600;28;19934;-48
2022/03/28 02:31:17;;;;;;;;;;;5.20;99.90;;;;;;5009930;28;19930;-47
2022/03/28 02:33:44;;;;;;;;;;;5.20;99.90;;;;;;5010743;28;19964;-50
2022/03/28 02:36:10;;;;;;;;;;;5.20;99.90;;;;;;5009039;28;19937;-49
2022/03/28 02:38:35;;;;;;;;;;;5.10;99.90;;;;;;5010283;28;20083;-49
2022/03/28 02:41:01;;;;;;;;;;;5.10;99.90;;;;;;5010562;28;19925;-48
2022/03/28 02:43:27;;;;;;;;;;;5.10;99.90;;;;;;5008215;28;20350;-47
2022/03/28 02:45:52;;;;;;;;;;;5.20;99.90;;;;;;5007988;28;20013;-47
2022/03/28 02:48:17;;;;;;;;;;;5.20;99.90;;;;;;5012304;28;20302;-48
2022/03/28 02:50:44;;;;;;;;;;;5.10;99.90;;;;;;5007347;28;20027;-47
2022/03/28 02:53:10;;;;;;;;;;;5.10;99.90;;;;;;5001264;28;20249;-48
2022/03/28 02:55:36;;;;;;;;;;;5.10;99.90;;;;;;5005467;28;20375;-50
2022/03/28 02:58:02;;;;;;;;;;;5.20;99.90;;;;;;4998870;28;19973;-51
2022/03/28 03:00:27;;;;;;;;;;;5.10;99.90;;;;;;5001750;28;19933;-48
2022/03/28 03:02:53;;;;;;;;;;;5.20;99.90;;;;;;5003280;28;19934;-48
2022/03/28 03:05:18;;;;;;;;;;;5.20;99.90;;;;;;5004133;28;20261;-48
2022/03/28 03:07:44;;;;;;;;;;;5.20;99.90;;;;;;5004598;28;20067;-47
2022/03/28 03:10:09;;;;;;;;;;;5.20;99.90;;;;;;5001276;28;20004;-48
2022/03/28 03:12:35;;;;;;;;;;;5.30;99.90;;;;;;5002603;28;20340;-48
2022/03/28 03:15:00;;;;;;;;;;;5.30;99.90;;;;;;5001410;28;20004;-47
2022/03/28 03:17:26;;;;;;;;;;;5.30;99.90;;;;;;5003408;28;19925;-47
2022/03/28 03:19:51;;;;;;;;;;;5.30;99.90;;;;;;5002521;28;20021;-47
2022/03/28 03:22:17;;;;;;;;;;;5.30;99.90;;;;;;5002991;28;20003;-48
2022/03/28 03:24:43;;;;;;;;;;;5.30;99.90;;;;;;5003548;28;19926;-48
2022/03/28 03:27:09;;;;;;;;;;;5.30;99.90;;;;;;5009607;28;19929;-47
2022/03/28 03:29:35;;;;;;;;;;;5.30;99.90;;;;;;4972908;28;20000;-47
2022/03/28 03:32:00;;;;;;;;;;;5.30;99.90;;;;;;5000300;28;19945;-48
2022/03/28 03:34:27;;;;;;;;;;;5.30;99.90;;;;;;4997575;28;19961;-48
2022/03/28 03:36:53;;;;;;;;;;;5.20;99.90;;;;;;4997680;28;19933;-50
2022/03/28 03:39:18;;;;;;;;;;;5.30;99.90;;;;;;5006645;28;19936;-49
2022/03/28 03:41:44;;;;;;;;;;;5.30;99.90;;;;;;5001919;28;19926;-49
2022/03/28 03:44:10;;;;;;;;;;;5.30;99.90;;;;;;4988490;28;19936;-47
2022/03/28 03:46:35;;;;;;;;;;;5.20;99.90;;;;;;4998580;28;19926;-48
2022/03/28 03:49:01;;;;;;;;;;;5.20;99.90;;;;;;5003557;28;20051;-48
2022/03/28 03:51:26;;;;;;;;;;;5.20;99.90;;;;;;5004965;28;19979;-49
2022/03/28 03:53:52;;;;;;;;;;;5.20;99.90;;;;;;5001728;28;19933;-52
2022/03/28 03:56:17;;;;;;;;;;;5.10;99.90;;;;;;5005874;28;20295;-49
2022/03/28 03:58:43;;;;;;;;;;;5.10;99.90;;;;;;4982759;28;19926;-48
2022/03/28 04:01:08;;;;;;;;;;;5.10;99.90;;;;;;4981670;28;19984;-48
2022/03/28 04:03:35;;;;;;;;;;;5.10;99.90;;;;;;5005140;28;20339;-48
2022/03/28 04:06:00;;;;;;;;;;;5.10;99.90;;;;;;4999518;28;19932;-49
2022/03/28 04:08:27;;;;;;;;;;;5.00;99.90;;;;;;5002979;28;20368;-48
2022/03/28 04:10:53;;;;;;;;;;;5.00;99.90;;;;;;5004373;28;20376;-48
2022/03/28 04:13:18;;;;;;;;;;;5.10;99.90;;;;;;5004164;28;19932;-47
2022/03/28 04:15:44;;;;;;;;;;;5.10;99.90;;;;;;5000160;28;20734;-49
2022/03/28 04:18:09;;;;;;;;;;;5.00;99.90;;;;;;5006148;28;19926;-51
2022/03/28 04:20:35;;;;;;;;;;;5.00;99.90;;;;;;5001891;28;19972;-49
2022/03/28 04:23:01;;;;;;;;;;;5.10;99.90;;;;;;5002782;28;19973;-48
2022/03/28 04:25:26;;;;;;;;;;;5.00;99.90;;;;;;5005306;28;19933;-48
2022/03/28 04:27:52;;;;;;;;;;;5.00;99.90;;;;;;5007806;28;19955;-48
2022/03/28 04:30:17;;;;;;;;;;;5.00;99.90;;;;;;5002887;28;20003;-48
2022/03/28 04:32:43;;;;;;;;;;;5.10;99.90;;;;;;5001271;28;20573;-51
2022/03/28 04:35:09;;;;;;;;;;;5.10;99.90;;;;;;5000631;28;19926;-49
2022/03/28 04:37:35;;;;;;;;;;;5.10;99.90;;;;;;5001428;28;19926;-49
2022/03/28 04:40:02;;;;;;;;;;;5.00;99.90;;;;;;4999413;28;19926;-49
2022/03/28 04:42:27;;;;;;;;;;;4.90;99.90;;;;;;4987200;28;19961;-48
2022/03/28 04:44:53;;;;;;;;;;;5.00;99.90;;;;;;5004418;28;19976;-50
2022/03/28 04:47:18;;;;;;;;;;;5.00;99.90;;;;;;4999100;28;19956;-50
2022/03/28 04:49:44;;;;;;;;;;;4.90;99.90;;;;;;5002822;28;19929;-48
2022/03/28 04:52:09;;;;;;;;;;;4.90;99.90;;;;;;5000147;28;19932;-49
2022/03/28 04:54:36;;;;;;;;;;;5.00;99.90;;;;;;5001965;28;19952;-48
2022/03/28 04:57:03;;;;;;;;;;;5.00;99.90;;;;;;4989686;28;20028;-48
2022/03/28 04:59:28;;;;;;;;;;;5.00;99.90;;;;;;5008050;28;19925;-49
2022/03/28 05:01:54;;;;;;;;;;;5.00;99.90;;;;;;5006742;28;19926;-47
2022/03/28 05:04:19;;;;;;;;;;;5.00;99.90;;;;;;5005585;28;19925;-48
2022/03/28 05:06:44;;;;;;;;;;;5.00;99.90;;;;;;5008984;28;20011;-48
2022/03/28 05:09:10;;;;;;;;;;;5.00;99.90;;;;;;5005414;28;19976;-48
2022/03/28 05:11:35;;;;;;;;;;;5.00;99.90;;;;;;5004308;28;19937;-48
2022/03/28 05:14:02;;;;;;;;;;;5.00;99.90;;;;;;5005382;28;19925;-50
2022/03/28 05:16:27;;;;;;;;;;;5.00;99.90;;;;;;5009665;28;19926;-48
2022/03/28 05:18:52;;;;;;;;;;;5.10;99.90;;;;;;5009596;28;19933;-50
2022/03/28 05:21:18;;;;;;;;;;;5.00;99.90;;;;;;5004560;28;20052;-49
2022/03/28 05:23:44;;;;;;;;;;;5.10;99.90;;;;;;5001299;28;20379;-47
2022/03/28 05:26:09;;;;;;;;;;;5.10;99.90;;;;;;4997688;28;19933;-48
2022/03/28 05:28:35;;;;;;;;;;;5.10;99.90;;;;;;5001154;28;19933;-49
2022/03/28 05:31:00;;;;;;;;;;;5.10;99.90;;;;;;5003614;28;20421;-52
2022/03/28 05:33:26;;;;;;;;;;;5.10;99.90;;;;;;5002596;28;19925;-47
2022/03/28 05:35:52;;;;;;;;;;;5.10;99.90;;;;;;5006077;28;20265;-50
2022/03/28 05:38:20;;;;;;;;;;;5.10;99.90;;;;;;5005476;28;19925;-49
2022/03/28 05:40:45;;;;;;;;;;;5.20;99.90;;;;;;5004409;28;19925;-50
2022/03/28 05:43:12;;;;;;;;;;;;;;;;;;5011822;28;19932;-53
2022/03/28 05:45:37;;;;;;;;;;;5.30;99.90;;;;;;5011085;28;19930;-49
2022/03/28 05:48:03;;;;;;;;;;;5.30;99.90;;;;;;5012542;28;19926;-48
2022/03/28 05:50:29;;;;;;;;;;;5.20;99.90;;;;;;5010994;28;19933;-51
2022/03/28 05:52:54;;;;;;;;;;;5.20;99.90;;;;;;5012023;28;19925;-49
2022/03/28 05:55:20;;;;;;;;;;;5.20;99.90;;;;;;5011386;28;19925;-50
2022/03/28 05:57:46;;;;;;;;;;;5.30;99.90;;;;;;5012223;28;19925;-48
2022/03/28 06:00:13;;;;;;;;;;;5.20;99.90;;;;;;4993300;28;20399;-49
2022/03/28 06:02:39;;;;;;;;;;;5.30;99.90;;;;;;5011788;28;19933;-49
2022/03/28 06:05:05;;;;;;;;;;;5.50;99.90;;;;;;5008518;28;19933;-49
2022/03/28 06:07:31;;;;;;;;;;;5.40;99.90;;;;;;5012826;28;19929;-49
2022/03/28 06:09:57;;;;;;;;;;;5.40;99.90;;;;;;5011383;28;19995;-48
2022/03/28 06:12:23;;;;;;;;;;;5.40;99.90;;;;;;5011515;28;21681;-48
2022/03/28 06:14:49;;;;;;;;;;;5.70;99.90;;;;;;5009766;28;19929;-48
2022/03/28 06:17:21;;;;;;;;;;;6.10;99.90;;;;;;5008874;28;19983;-48
2022/03/28 06:19:47;;;;;;;;;;;5.60;99.90;;;;;;5008242;28;20017;-52
2022/03/28 06:22:12;;;;;;;;;;;5.40;99.90;;;;;;5008989;28;20390;-49
2022/03/28 06:24:38;;;;;;;;;;;5.50;99.90;;;;;;5011448;28;19929;-49
2022/03/28 06:27:03;;;;;;;;;;;5.40;99.90;;;;;;5007737;28;20012;-49
2022/03/28 06:29:29;;;;;;;;;;;5.60;99.90;;;;;;5009600;28;19988;-52
2022/03/28 06:31:57;;;;;;;;;;;;;;;;;;5009466;28;19940;-52
2022/03/28 06:34:22;;;;;;;;;;;5.40;99.90;;;;;;5009357;28;19945;-48
2022/03/28 06:36:48;;;;;;;;;;;5.50;99.90;;;;;;5009756;28;21303;-48
2022/03/28 06:39:14;;;;;;;;;;;5.50;99.90;;;;;;5010770;28;19999;-48
2022/03/28 06:41:39;;;;;;;;;;;5.60;99.90;;;;;;4984284;28;19926;-49
2022/03/28 06:44:07;;;;;;;;;;;5.60;99.90;;;;;;5011579;28;19925;-49
2022/03/28 06:46:33;;;;;;;;;;;5.60;99.90;;;;;;5011198;28;19929;-47
2022/03/28 06:48:58;;;;;;;;;;;5.60;99.90;;;;;;5008838;28;19932;-48
2022/03/28 06:51:24;;;;;;;;;;;5.70;99.90;;;;;;5007101;28;19984;-50
2022/03/28 06:53:50;;;;;;;;;;;5.70;99.90;;;;;;5006299;28;20012;-50
2022/03/28 06:56:16;;;;;;;;;;;5.70;99.90;;;;;;4992173;28;19926;-51
2022/03/28 06:58:42;;;;;;;;;;;5.60;99.90;;;;;;4990287;28;19926;-48
2022/03/28 07:01:08;;;;;;;;;;;5.60;99.90;;;;;;5006475;28;19961;-48
2022/03/28 07:03:34;;;;;;;;;;;5.70;99.90;;;;;;4995822;28;19965;-48
2022/03/28 07:06:01;;;;;;;;;;;5.80;99.90;;;;;;4975279;28;19926;-49
2022/03/28 07:08:26;;;;;;;;;;;5.80;99.90;;;;;;5011221;28;19948;-50
2022/03/28 07:10:53;;;;;;;;;;;5.70;99.90;;;;;;5008454;28;20415;-52
2022/03/28 07:13:19;;;;;;;;;;;5.60;99.90;;;;;;5010296;28;19936;-48
2022/03/28 07:15:44;;;;;;;;;;;5.60;99.90;;;;;;5007181;28;19925;-48
2022/03/28 07:18:10;;;;;;;;;;;5.70;99.90;;;;;;5005819;28;19980;-49
2022/03/28 07:20:35;;;;;;;;;;;5.60;99.90;;;;;;4989903;28;19930;-47
2022/03/28 07:23:02;;;;;;;;;;;5.60;99.90;;;;;;5008281;28;19934;-48
2022/03/28 07:25:28;;;;;;;;;;;5.70;99.90;;;;;;5011232;28;19933;-52
2022/03/28 07:27:54;;;;;;;;;;;5.60;99.90;;;;;;5007718;28;19965;-50
2022/03/28 07:30:20;;;;;;;;;;;5.70;99.90;;;;;;5005299;28;20375;-49
2022/03/28 07:32:45;;;;;;;;;;;5.60;99.90;;;;;;5007970;28;19973;-48
2022/03/28 07:35:12;;;;;;;;;;;5.60;99.90;;;;;;4984380;28;19967;-48
2022/03/28 07:37:39;;;;;;;;;;;5.50;99.90;;;;;;4991301;28;19941;-49
2022/03/28 07:40:05;;;;;;;;;;;5.60;99.90;;;;;;4999889;28;19932;-49
2022/03/28 07:42:32;;;;;;;;;;;5.50;99.90;;;;;;5005259;28;20012;-49
2022/03/28 07:44:58;;;;;;;;;;;5.50;99.90;;;;;;5005363;28;19930;-48
2022/03/28 07:47:25;;;;;;;;;;;5.50;99.90;;;;;;5008938;28;19926;-48
2022/03/28 07:49:52;;;;;;;;;;;5.50;99.90;;;;;;5008199;28;19926;-50
2022/03/28 07:52:18;;;;;;;;;;;5.60;99.90;;;;;;5006417;28;19933;-49
2022/03/28 07:54:43;;;;;;;;;;;5.50;99.90;;;;;;5011774;28;20296;-51
2022/03/28 07:57:09;;;;;;;;;;;5.40;99.90;;;;;;5008470;28;20012;-48
2022/03/28 07:59:34;;;;;;;;;;;5.80;99.90;;;;;;5006154;28;20253;-49
2022/03/28 08:02:00;;;;;;;;;;;5.80;99.90;;;;;;5003616;28;19933;-48
2022/03/28 08:04:25;;;;;;;;;;;5.80;99.90;;;;;;5011113;28;19925;-48
2022/03/28 08:06:51;;;;;;;;;;;5.90;99.90;;;;;;5011296;28;19925;-51
2022/03/28 08:09:17;;;;;;;;;;;6.00;99.90;;;;;;4992911;28;19980;-49
2022/03/28 08:11:45;;;;;;;;;;;6.10;99.90;;;;;;5011829;28;19926;-48
2022/03/28 08:14:10;;;;;;;;;;;6.10;99.90;;;;;;5009178;28;19964;-49
2022/03/28 08:16:39;;;;;;;;;;;;;;;;;;5007742;28;20325;-49
2022/03/28 08:19:04;;;;;;;;;;;6.10;99.90;;;;;;5003445;28;19936;-54
2022/03/28 08:21:30;;;;;;;;;;;6.30;99.90;;;;;;5000460;28;19958;-49
2022/03/28 08:23:58;;;;;;;;;;;;;;;;;;5002922;28;19933;-48
2022/03/28 08:26:26;;;;;;;;;;;;;;;;;;4969756;28;20032;-50
2022/03/28 08:28:51;;;;;;;;;;;6.50;99.90;;;;;;5001973;28;19926;-49
2022/03/28 08:31:17;;;;;;;;;;;6.70;99.90;;;;;;4995058;28;19931;-50
2022/03/28 08:33:42;;;;;;;;;;;6.50;99.90;;;;;;5002626;28;19925;-49
2022/03/28 08:36:08;;;;;;;;;;;6.40;99.90;;;;;;5005152;28;20340;-48
2022/03/28 08:38:35;;;;;;;;;;;6.40;99.90;;;;;;5006593;28;19980;-48
2022/03/28 08:41:01;;;;;;;;;;;6.50;99.90;;;;;;4971424;28;19932;-48
2022/03/28 08:43:27;;;;;;;;;;;6.50;99.90;;;;;;5007901;28;19925;-48
2022/03/28 08:45:52;;;;;;;;;;;6.50;99.90;;;;;;4989688;28;19945;-49
2022/03/28 08:48:18;;;;;;;;;;;6.50;99.90;;;;;;5005433;28;20229;-48
2022/03/28 08:50:46;;;;;;;;;;;6.50;99.90;;;;;;5006357;28;20056;-49
2022/03/28 08:53:12;;;;;;;;;;;6.50;99.90;;;;;;5009879;28;20317;-49
2022/03/28 08:55:39;;;;;;;;;;;6.60;99.90;;;;;;5008605;28;19933;-49
2022/03/28 08:58:05;;;;;;;;;;;6.80;99.90;;;;;;5010307;28;20023;-50
2022/03/28 09:00:33;;;;;;;;;;;;;;;;;;5000350;28;20533;-52
2022/03/28 09:02:59;;;;;;;;;;;6.80;99.90;;;;;;5008915;28;19932;-49
2022/03/28 09:05:29;;;;;;;;;;;7.10;99.90;;;;;;4995872;28;20434;-52
2022/03/28 09:07:55;;;;;;;;;;;7.30;99.90;;;;;;5008797;28;20012;-51
2022/03/28 09:10:21;;;;;;;;;;;7.30;99.90;;;;;;5011261;28;20027;-50
2022/03/28 09:13:00;;;;;;;;;;;7.40;99.90;;;;;;4987832;28;20127;-51
2022/03/28 09:15:40;;;;;;;;;;;7.30;99.90;;;;;;5008846;28;19929;-49
2022/03/28 09:18:05;;;;;;;;;;;7.10;99.90;;;;;;5012178;28;19929;-52
2022/03/28 09:20:31;;;;;;;;;;;7.00;99.90;;;;;;5014213;28;19972;-51
2022/03/28 09:22:56;;;;;;;;;;;7.10;99.90;;;;;;5012789;28;19945;-51
2022/03/28 09:25:23;;;;;;;;;;;7.20;99.90;;;;;;5012100;28;19934;-48
2022/03/28 09:27:49;;;;;;;;;;;7.10;99.90;;;;;;5009275;28;19932;-52
2022/03/28 09:30:19;;;;;;;;;;;7.10;99.90;;;;;;4991917;28;19926;-52
2022/03/28 09:32:47;;;;;;;;;;;7.20;99.90;;;;;;5011903;28;19985;-49
2022/03/28 09:35:12;;;;;;;;;;;7.40;99.90;;;;;;5006247;28;20352;-48
2022/03/28 09:37:47;;;;;;;;;;;7.50;99.90;;;;;;5011675;28;19936;-48
2022/03/28 09:40:21;;;;;;;;;;;7.90;99.90;;;;;;5003224;28;19979;-50
2022/03/28 09:42:47;;;;;;;;;;;7.80;99.90;;;;;;5009339;28;20389;-50
2022/03/28 09:45:20;;;;;;;;;;;7.70;99.90;;;;;;5005122;28;20016;-52
2022/03/28 09:48:02;;;;;;;;;;;7.90;99.90;;;;;;4988142;28;20271;-50
2022/03/28 09:51:03;;;;;;;;;;;7.80;99.90;;;;;;5005841;28;19934;-52
2022/03/28 09:53:33;;;;;;;;;;;7.90;99.90;;;;;;4930858;29;19946;-48
2022/03/28 09:56:00;;;;;;;;;;;7.80;99.90;;;;;;4929653;29;19927;-49
2022/03/28 09:58:33;;;;;;;;;;;7.60;99.90;;;;;;4931322;29;20013;-49
2022/03/28 10:00:59;;;;;;;;;;;7.90;99.90;;;;;;4930565;29;20005;-51
2022/03/28 10:03:25;;;;;;;;;;;7.80;99.90;;;;;;4930645;29;19952;-50
2022/03/28 10:05:52;;;;;;;;;;;7.40;99.90;;;;;;4932242;29;19926;-50
2022/03/28 10:08:17;;;;;;;;;;;7.90;99.90;;;;;;4928840;29;20871;-48
2022/03/28 10:10:44;;;;;;;;;;;8.00;99.90;;;;;;4929396;29;19938;-51
2022/03/28 10:13:09;;;;;;;;;;;7.90;99.90;;;;;;4931442;29;19927;-52
2022/03/28 10:15:35;;;;;;;;;;;8.20;99.90;;;;;;4911085;29;19934;-50
2022/03/28 10:18:04;;;;;;;;;;;;;;;;;;4929037;29;20426;-51
2022/03/28 10:20:30;;;;;;;;;;;8.20;99.90;;;;;;4931604;29;19926;-49
2022/03/28 10:22:56;;;;;;;;;;;8.30;99.90;;;;;;4929369;29;20338;-51
2022/03/28 10:25:22;;;;;;;;;;;8.50;99.90;;;;;;4931575;29;19927;-48
2022/03/28 10:27:50;;;;;;;;;;;8.90;99.90;;;;;;4980543;28;19980;-50
2022/03/28 10:30:33;;;;;;;;;;;8.80;99.90;;;;;;4992834;28;20263;-49
2022/03/28 10:33:08;;;;;;;;;;;8.90;99.90;;;;;;5008475;28;20351;-49
2022/03/28 10:35:34;;;;;;;;;;;8.70;99.90;;;;;;4992450;28;19925;-49
2022/03/28 10:38:18;;;;;;;;;;;9.30;99.90;;;;;;5008208;28;19932;-52
2022/03/28 10:40:54;;;;;;;;;;;9.30;99.90;;;;;;5011886;28;20046;-49
2022/03/28 10:43:19;;;;;;;;;;;9.20;99.90;;;;;;5013381;28;19926;-49
2022/03/28 10:45:48;;;;;;;;;;;9.10;99.90;;;;;;5013037;28;19948;-49
2022/03/28 10:48:13;;;;;;;;;;;9.40;99.90;;;;;;5013273;28;19988;-49
2022/03/28 10:50:51;;;;;;;;;;;10.10;99.90;;;;;;5010002;28;20316;-49
2022/03/28 10:53:18;;;;;;;;;;;10.20;99.90;;;;;;5008854;28;19925;-48
2022/03/28 10:55:48;;;;;;;;;;;10.30;99.90;;;;;;5007773;28;20340;-49
2022/03/28 10:58:16;;;;;;;;;;;10.20;99.90;;;;;;5012772;28;20291;-49
2022/03/28 11:01:00;;;;;;;;;;;9.90;99.90;;;;;;5012217;28;20121;-48
2022/03/28 11:03:55;;;;;;;;;;;9.80;99.90;;;;;;5013124;28;20036;-48
2022/03/28 11:06:41;;;;;;;;;;;9.90;99.90;;;;;;4991451;28;19964;-49
2022/03/28 11:09:07;;;;;;;;;;;10.10;99.90;;;;;;5003578;28;19925;-48
2022/03/28 11:11:33;;;;;;;;;;;10.20;99.90;;;;;;5008180;28;19978;-48
2022/03/28 11:14:08;;;;;;;;;;;9.90;99.90;;;;;;5013183;28;19926;-48
2022/03/28 11:16:52;;;;;;;;;;;9.70;99.90;;;;;;5011525;28;20020;-48
2022/03/28 11:19:26;;;;;;;;;;;9.80;99.90;;;;;;5010482;28;20025;-48
2022/03/28 11:22:06;;;;;;;;;;;9.90;99.90;;;;;;5010116;28;20391;-51
2022/03/28 11:24:56;;;;;;;;;;;9.90;99.90;;;;;;5010121;28;19925;-48
2022/03/28 11:27:22;;;;;;;;;;;9.70;99.90;;;;;;4993809;28;19933;-48
2022/03/28 11:29:49;;;;;;;;;;;9.50;99.90;;;;;;5004640;28;19988;-48
2022/03/28 11:32:16;;;;;;;;;;;9.70;99.90;;;;;;5008178;28;19932;-48
2022/03/28 11:34:52;;;;;;;;;;;10.00;99.90;;;;;;5011173;28;19971;-48
2022/03/28 11:37:25;;;;;;;;;;;9.90;99.90;;;;;;5010707;28;19929;-49
2022/03/28 11:39:52;;;;;;;;;;;10.80;99.90;;;;;;5009819;28;19925;-48
2022/03/28 11:42:25;;;;;;;;;;;11.30;99.90;;;;;;5011237;28;20039;-48
2022/03/28 11:44:50;;;;;;;;;;;11.30;99.90;;;;;;5005946;28;19969;-48
2022/03/28 11:47:18;;;;;;;;;;;11.60;99.90;;;;;;5011315;28;19965;-48
2022/03/28 11:50:00;;;;;;;;;;;11.60;99.90;;;;;;5008462;28;19925;-48
2022/03/28 11:52:27;;;;;;;;;;;11.10;99.90;;;;;;5004485;28;19925;-51
2022/03/28 11:54:55;;;;;;;;;;;10.90;99.90;;;;;;4991940;28;19925;-48
2022/03/28 12:00:21;;;;;;;;;;;10.80;99.90;;;;;;5012073;28;19932;-51
2022/03/28 12:02:47;;;;;;;;;;;10.60;99.90;;;;;;5009107;28;20288;-48
2022/03/28 12:05:22;;;;;;;;;;;10.70;99.90;;;;;;5011257;28;19930;-48
2022/03/28 12:07:48;;;;;;;;;;;10.70;99.90;;;;;;4994688;28;19932;-48
2022/03/28 12:10:14;;;;;;;;;;;10.70;99.90;;;;;;5011404;28;19925;-49
2022/03/28 12:12:39;;;;;;;;;;;10.70;99.90;;;;;;5008152;28;19938;-48
2022/03/28 12:15:09;;;;;;;;;;;10.60;99.90;;;;;;5011048;28;19969;-49
2022/03/28 12:17:34;;;;;;;;;;;10.70;99.90;;;;;;5011906;28;20382;-47
2022/03/28 12:20:04;;;;;;;;;;;10.90;99.90;;;;;;5011623;28;19925;-47
2022/03/28 12:22:42;;;;;;;;;;;11.20;99.90;;;;;;5010068;28;20390;-49
2022/03/28 12:25:08;;;;;;;;;;;11.20;99.90;;;;;;5011636;28;20020;-48
2022/03/28 12:27:33;;;;;;;;;;;11.30;99.90;;;;;;5007702;28;20024;-47
2022/03/28 12:29:59;;;;;;;;;;;11.00;99.90;;;;;;5011683;28;19925;-47
2022/03/28 12:32:24;;;;;;;;;;;11.20;99.90;;;;;;4993059;28;20036;-47
2022/03/28 12:34:50;;;;;;;;;;;11.30;99.90;;;;;;5011682;28;19933;-49
2022/03/28 12:37:16;;;;;;;;;;;11.50;99.90;;;;;;5011621;28;20454;-49
2022/03/28 12:39:45;;;;;;;;;;;11.70;99.90;;;;;;5011455;28;20372;-48
2022/03/28 12:42:24;;;;;;;;;;;11.90;99.90;;;;;;5010754;28;20442;-47
2022/03/28 12:44:51;;;;;;;;;;;11.60;99.90;;;;;;5008355;28;19945;-48
2022/03/28 12:47:17;;;;;;;;;;;11.70;99.90;;;;;;5010870;28;19979;-47
2022/03/28 12:49:43;;;;;;;;;;;11.90;99.90;;;;;;5008548;28;20024;-47
2022/03/28 12:52:10;;;;;;;;;;;11.90;99.90;;;;;;5008317;28;19930;-47
2022/03/28 12:54:35;;;;;;;;;;;11.90;99.90;;;;;;5010736;28;19926;-48
2022/03/28 12:57:02;;;;;;;;;;;11.80;99.90;;;;;;5010570;28;19948;-47
2022/03/28 12:59:29;;;;;;;;;;;11.90;99.90;;;;;;5009702;28;19948;-47
2022/03/28 13:02:12;;;;;;;;;;;12.10;99.90;;;;;;4986669;28;20016;-47
2022/03/28 13:04:41;;;;;;;;;;;12.00;99.90;;;;;;5009502;28;19936;-48
2022/03/28 13:07:06;;;;;;;;;;;12.20;99.90;;;;;;5009300;28;19933;-50
2022/03/28 13:09:32;;;;;;;;;;;12.40;99.90;;;;;;5008711;28;19937;-47
2022/03/28 13:12:08;;;;;;;;;;;12.40;99.90;;;;;;5009106;28;19929;-49
2022/03/28 13:14:33;;;;;;;;;;;12.60;99.90;;;;;;5006695;28;19933;-48
2022/03/28 13:17:12;;;;;;;;;;;12.50;99.90;;;;;;4992391;28;19996;-48
2022/03/28 13:19:39;;;;;;;;;;;12.60;99.90;;;;;;5010769;28;19929;-50
2022/03/28 13:22:06;;;;;;;;;;;12.60;99.90;;;;;;5011127;28;20019;-47
2022/03/28 13:24:33;;;;;;;;;;;12.70;99.90;;;;;;4990889;28;19972;-48
2022/03/28 13:29:49;;;;;;;;;;;12.60;99.90;;;;;;5006443;28;19979;-52
2022/03/28 13:32:14;;;;;;;;;;;12.60;99.90;;;;;;5009110;28;19926;-50
2022/03/28 13:34:40;;;;;;;;;;;12.70;99.90;;;;;;5005706;28;20383;-48
2022/03/28 13:37:06;;;;;;;;;;;12.70;99.90;;;;;;5010597;28;20048;-50
2022/03/28 13:39:35;;;;;;;;;;;12.80;99.90;;;;;;5009324;28;19929;-48
2022/03/28 13:42:00;;;;;;;;;;;13.00;99.90;;;;;;5010015;28;19948;-51
2022/03/28 13:44:26;;;;;;;;;;;13.00;99.90;;;;;;5009302;28;19925;-48
2022/03/28 13:46:52;;;;;;;;;;;12.90;99.90;;;;;;4991400;28;19980;-48
2022/03/28 13:49:17;;;;;;;;;;;13.00;99.90;;;;;;5008619;28;19925;-48
2022/03/28 13:51:43;;;;;;;;;;;13.10;99.90;;;;;;5013398;28;19925;-50
2022/03/28 13:54:09;;;;;;;;;;;13.10;99.90;;;;;;5014793;28;20371;-47
2022/03/28 13:56:36;;;;;;;;;;;13.30;99.90;;;;;;5014951;28;19936;-48
2022/03/28 13:59:02;;;;;;;;;;;13.40;99.90;;;;;;5013138;28;19925;-48
2022/03/28 14:01:28;;;;;;;;;;;13.40;99.90;;;;;;4992872;28;20445;-48
2022/03/28 14:03:56;;;;;;;;;;;13.40;99.90;;;;;;5015711;28;19980;-49
2022/03/28 14:06:22;;;;;;;;;;;13.50;99.90;;;;;;5014615;28;20351;-48
2022/03/28 14:08:48;;;;;;;;;;;13.70;99.90;;;;;;5015682;28;19932;-48
2022/03/28 14:11:14;;;;;;;;;;;13.70;99.90;;;;;;5015356;28;19925;-48
2022/03/28 14:13:40;;;;;;;;;;;13.70;99.90;;;;;;5015636;28;20041;-50
2022/03/28 14:16:06;;;;;;;;;;;13.80;99.90;;;;;;5015488;28;20416;-49
2022/03/28 14:18:31;;;;;;;;;;;13.90;99.90;;;;;;5015431;28;20405;-48
2022/03/28 14:20:57;;;;;;;;;;;13.80;99.90;;;;;;5015700;28;19929;-48
2022/03/28 14:23:25;;;;;;;;;;;13.90;99.90;;;;;;5015530;28;19926;-48
2022/03/28 14:25:50;;;;;;;;;;;13.80;99.90;;;;;;5010666;28;20300;-49
2022/03/28 14:28:17;;;;;;;;;;;13.70;99.90;;;;;;5015003;28;19930;-48
2022/03/28 14:30:42;;;;;;;;;;;13.80;99.90;;;;;;5015292;28;20439;-47
2022/03/28 14:33:08;;;;;;;;;;;13.90;99.90;;;;;;5015593;28;20012;-47